sensor_id;sensor_type;location;lat;lon;timestamp;temperature;humidity
11136;DHT22;5622;50.840;4.948;2023-02-11T00:51:38;6.30;99.90
11136;DHT22;5622;50.840;4.948;2023-02-11T01:29:34;5.90;99.90
11136;DHT22;5622;50.840;4.948;2023-02-11T01:32:53;5.90;99.90
11136;DHT22;5622;50.840;4.948;2023-02-11T01:36:11;5.80;99.90
11136;DHT22;5622;50.840;4.948;2023-02-11T01:39:31;6.00;99.90
11136;DHT22;5622;50.840;4.948;2023-02-11T06:31:12;6.50;99.90
11136;DHT22;5622;50.840;4.948;2023-02-11T06:33:39;6.60;99.90
11136;DHT22;5622;50.840;4.948;2023-02-11T06:36:12;6.60;99.90
11136;DHT22;5622;50.840;4.948;2023-02-11T06:38:39;6.60;99.90
11136;DHT22;5622;50.840;4.948;2023-02-11T06:41:08;6.60;99.90
11136;DHT22;5622;50.840;4.948;2023-02-11T06:43:39;6.70;99.90
11136;DHT22;5622;50.840;4.948;2023-02-11T06:46:07;6.60;99.90
11136;DHT22;5622;50.840;4.948;2023-02-11T06:48:35;6.60;99.90
11136;DHT22;5622;50.840;4.948;2023-02-11T06:51:06;6.60;99.90
11136;DHT22;5622;50.840;4.948;2023-02-11T06:53:34;6.60;99.90
11136;DHT22;5622;50.840;4.948;2023-02-11T06:56:03;6.60;99.90
11136;DHT22;5622;50.840;4.948;2023-02-11T06:58:30;6.60;99.90
11136;DHT22;5622;50.840;4.948;2023-02-11T07:00:58;6.60;99.90
11136;DHT22;5622;50.840;4.948;2023-02-11T07:12:11;6.60;99.90
11136;DHT22;5622;50.840;4.948;2023-02-11T07:14:39;6.60;99.90
11136;DHT22;5622;50.840;4.948;2023-02-11T07:17:06;6.60;99.90
11136;DHT22;5622;50.840;4.948;2023-02-11T07:19:33;6.70;99.90
11136;DHT22;5622;50.840;4.948;2023-02-11T07:22:00;6.70;99.90
11136;DHT22;5622;50.840;4.948;2023-02-11T07:24:28;6.70;99.90
11136;DHT22;5622;50.840;4.948;2023-02-11T07:26:55;6.70;99.90
11136;DHT22;5622;50.840;4.948;2023-02-11T07:29:24;6.70;99.90
11136;DHT22;5622;50.840;4.948;2023-02-11T07:31:51;6.70;99.90
11136;DHT22;5622;50.840;4.948;2023-02-11T07:34:18;6.70;99.90
11136;DHT22;5622;50.840;4.948;2023-02-11T07:36:45;6.70;99.90
11136;DHT22;5622;50.840;4.948;2023-02-11T07:39:13;6.70;99.90
11136;DHT22;5622;50.840;4.948;2023-02-11T07:41:42;6.70;99.90
11136;DHT22;5622;50.840;4.948;2023-02-11T07:44:12;6.70;99.90
11136;DHT22;5622;50.840;4.948;2023-02-11T07:46:41;6.70;99.90
11136;DHT22;5622;50.840;4.948;2023-02-11T07:49:10;6.80;99.90
11136;DHT22;5622;50.840;4.948;2023-02-11T07:51:37;6.80;99.90
11136;DHT22;5622;50.840;4.948;2023-02-11T07:54:04;6.80;99.90
11136;DHT22;5622;50.840;4.948;2023-02-11T07:56:31;6.80;99.90
11136;DHT22;5622;50.840;4.948;2023-02-11T07:59:01;6.70;99.90
11136;DHT22;5622;50.840;4.948;2023-02-11T08:01:29;6.80;99.90
11136;DHT22;5622;50.840;4.948;2023-02-11T08:03:59;6.80;99.90
11136;DHT22;5622;50.840;4.948;2023-02-11T08:06:29;6.80;99.90
11136;DHT22;5622;50.840;4.948;2023-02-11T08:08:56;6.80;99.90
11136;DHT22;5622;50.840;4.948;2023-02-11T08:11:25;6.90;99.90
11136;DHT22;5622;50.840;4.948;2023-02-11T08:13:54;6.80;99.90
11136;DHT22;5622;50.840;4.948;2023-02-11T08:16:23;6.90;99.90
11136;DHT22;5622;50.840;4.948;2023-02-11T08:18:52;6.90;99.90
11136;DHT22;5622;50.840;4.948;2023-02-11T08:21:21;6.90;99.90
11136;DHT22;5622;50.840;4.948;2023-02-11T08:23:48;6.90;99.90
11136;DHT22;5622;50.840;4.948;2023-02-11T08:26:17;6.90;99.90
11136;DHT22;5622;50.840;4.948;2023-02-11T08:28:45;6.90;99.90
11136;DHT22;5622;50.840;4.948;2023-02-11T08:31:14;6.90;99.90
11136;DHT22;5622;50.840;4.948;2023-02-11T08:33:42;7.00;99.90
11136;DHT22;5622;50.840;4.948;2023-02-11T08:36:10;7.00;99.90
11136;DHT22;5622;50.840;4.948;2023-02-11T08:38:39;7.00;99.90
11136;DHT22;5622;50.840;4.948;2023-02-11T08:41:06;7.00;99.90
11136;DHT22;5622;50.840;4.948;2023-02-11T08:43:34;7.00;99.90
11136;DHT22;5622;50.840;4.948;2023-02-11T08:46:02;7.00;99.90
11136;DHT22;5622;50.840;4.948;2023-02-11T08:48:29;7.00;99.90
11136;DHT22;5622;50.840;4.948;2023-02-11T08:50:56;7.00;99.90
11136;DHT22;5622;50.840;4.948;2023-02-11T08:53:24;7.10;99.90
11136;DHT22;5622;50.840;4.948;2023-02-11T08:55:53;7.10;99.90
11136;DHT22;5622;50.840;4.948;2023-02-11T08:58:21;7.10;99.90
11136;DHT22;5622;50.840;4.948;2023-02-11T09:00:49;7.10;99.90
11136;DHT22;5622;50.840;4.948;2023-02-11T09:03:16;7.10;99.90
11136;DHT22;5622;50.840;4.948;2023-02-11T09:05:44;7.10;99.90
11136;DHT22;5622;50.840;4.948;2023-02-11T09:08:15;7.10;99.90
11136;DHT22;5622;50.840;4.948;2023-02-11T09:10:43;7.10;99.90
11136;DHT22;5622;50.840;4.948;2023-02-11T09:13:11;7.10;99.90
11136;DHT22;5622;50.840;4.948;2023-02-11T09:15:39;7.10;99.90
11136;DHT22;5622;50.840;4.948;2023-02-11T09:18:06;7.10;99.90
11136;DHT22;5622;50.840;4.948;2023-02-11T09:20:33;7.20;99.90
11136;DHT22;5622;50.840;4.948;2023-02-11T09:23:00;7.20;99.90
11136;DHT22;5622;50.840;4.948;2023-02-11T09:25:27;7.20;99.90
11136;DHT22;5622;50.840;4.948;2023-02-11T09:27:54;7.20;99.90
11136;DHT22;5622;50.840;4.948;2023-02-11T09:30:23;7.20;99.90
11136;DHT22;5622;50.840;4.948;2023-02-11T09:32:50;7.20;99.90
11136;DHT22;5622;50.840;4.948;2023-02-11T09:35:17;7.20;99.90
11136;DHT22;5622;50.840;4.948;2023-02-11T09:37:44;7.20;99.90
11136;DHT22;5622;50.840;4.948;2023-02-11T09:40:12;7.30;99.90
11136;DHT22;5622;50.840;4.948;2023-02-11T09:42:45;7.30;99.90
11136;DHT22;5622;50.840;4.948;2023-02-11T09:45:17;7.30;99.90
11136;DHT22;5622;50.840;4.948;2023-02-11T09:47:48;7.30;99.90
11136;DHT22;5622;50.840;4.948;2023-02-11T09:50:22;7.30;99.90
11136;DHT22;5622;50.840;4.948;2023-02-11T09:52:53;7.30;99.90
11136;DHT22;5622;50.840;4.948;2023-02-11T09:55:26;7.40;99.90
11136;DHT22;5622;50.840;4.948;2023-02-11T09:57:54;7.40;99.90
11136;DHT22;5622;50.840;4.948;2023-02-11T10:00:24;7.40;99.90
11136;DHT22;5622;50.840;4.948;2023-02-11T10:03:06;7.40;99.90
11136;DHT22;5622;50.840;4.948;2023-02-11T10:05:53;7.40;99.90
11136;DHT22;5622;50.840;4.948;2023-02-11T10:08:30;7.40;99.90
11136;DHT22;5622;50.840;4.948;2023-02-11T10:11:04;7.40;99.90
11136;DHT22;5622;50.840;4.948;2023-02-11T10:13:45;7.40;99.90
11136;DHT22;5622;50.840;4.948;2023-02-11T10:16:24;7.50;99.90
11136;DHT22;5622;50.840;4.948;2023-02-11T10:19:14;7.50;99.90
11136;DHT22;5622;50.840;4.948;2023-02-11T10:22:14;7.50;99.90
11136;DHT22;5622;50.840;4.948;2023-02-11T10:25:21;7.50;99.90
11136;DHT22;5622;50.840;4.948;2023-02-11T10:28:08;7.50;99.90
11136;DHT22;5622;50.840;4.948;2023-02-11T10:30:51;7.50;99.90
11136;DHT22;5622;50.840;4.948;2023-02-11T10:33:40;7.50;99.90
11136;DHT22;5622;50.840;4.948;2023-02-11T10:36:28;7.50;99.90
11136;DHT22;5622;50.840;4.948;2023-02-11T10:39:21;7.50;99.90
11136;DHT22;5622;50.840;4.948;2023-02-11T10:42:00;7.60;99.90
11136;DHT22;5622;50.840;4.948;2023-02-11T10:44:40;7.60;99.90
11136;DHT22;5622;50.840;4.948;2023-02-11T10:47:23;7.60;99.90
11136;DHT22;5622;50.840;4.948;2023-02-11T10:50:00;7.60;99.90
11136;DHT22;5622;50.840;4.948;2023-02-11T10:53:14;7.60;99.90
11136;DHT22;5622;50.840;4.948;2023-02-11T10:55:56;7.70;99.90
11136;DHT22;5622;50.840;4.948;2023-02-11T10:58:39;7.70;99.90
11136;DHT22;5622;50.840;4.948;2023-02-11T11:01:13;7.70;99.90
11136;DHT22;5622;50.840;4.948;2023-02-11T11:03:52;7.70;99.90
11136;DHT22;5622;50.840;4.948;2023-02-11T11:06:39;7.70;99.90
11136;DHT22;5622;50.840;4.948;2023-02-11T11:09:47;7.70;99.90
11136;DHT22;5622;50.840;4.948;2023-02-11T11:12:34;7.80;99.90
11136;DHT22;5622;50.840;4.948;2023-02-11T11:15:22;7.80;99.90
11136;DHT22;5622;50.840;4.948;2023-02-11T11:18:19;7.80;99.90
11136;DHT22;5622;50.840;4.948;2023-02-11T11:21:00;7.80;99.90
11136;DHT22;5622;50.840;4.948;2023-02-11T11:23:40;7.80;99.90
11136;DHT22;5622;50.840;4.948;2023-02-11T11:26:29;7.80;99.90
11136;DHT22;5622;50.840;4.948;2023-02-11T11:29:20;7.80;99.90
11136;DHT22;5622;50.840;4.948;2023-02-11T11:32:03;7.80;99.90
11136;DHT22;5622;50.840;4.948;2023-02-11T11:34:39;7.80;99.90
11136;DHT22;5622;50.840;4.948;2023-02-11T11:37:34;7.80;99.90
11136;DHT22;5622;50.840;4.948;2023-02-11T11:40:25;7.80;99.90
11136;DHT22;5622;50.840;4.948;2023-02-11T11:43:29;7.90;99.90
11136;DHT22;5622;50.840;4.948;2023-02-11T11:46:25;7.90;99.90
11136;DHT22;5622;50.840;4.948;2023-02-11T11:49:25;7.90;99.90
11136;DHT22;5622;50.840;4.948;2023-02-11T11:52:24;7.90;99.90
11136;DHT22;5622;50.840;4.948;2023-02-11T11:55:13;7.90;99.90
11136;DHT22;5622;50.840;4.948;2023-02-11T11:57:56;7.90;99.90
11136;DHT22;5622;50.840;4.948;2023-02-11T12:00:41;7.90;99.90
11136;DHT22;5622;50.840;4.948;2023-02-11T12:03:56;8.00;99.90
11136;DHT22;5622;50.840;4.948;2023-02-11T12:06:45;8.00;99.90
11136;DHT22;5622;50.840;4.948;2023-02-11T12:09:30;8.00;99.90
11136;DHT22;5622;50.840;4.948;2023-02-11T12:12:28;8.00;99.90
11136;DHT22;5622;50.840;4.948;2023-02-11T12:15:21;8.00;99.90
11136;DHT22;5622;50.840;4.948;2023-02-11T12:18:22;8.00;99.90
11136;DHT22;5622;50.840;4.948;2023-02-11T12:21:15;8.10;99.90
11136;DHT22;5622;50.840;4.948;2023-02-11T12:24:18;8.10;99.90
11136;DHT22;5622;50.840;4.948;2023-02-11T12:27:07;8.10;99.90
11136;DHT22;5622;50.840;4.948;2023-02-11T12:30:05;8.00;99.90
11136;DHT22;5622;50.840;4.948;2023-02-11T12:32:52;8.20;99.90
11136;DHT22;5622;50.840;4.948;2023-02-11T12:35:41;8.20;99.90
11136;DHT22;5622;50.840;4.948;2023-02-11T12:38:53;8.20;99.90
11136;DHT22;5622;50.840;4.948;2023-02-11T12:41:47;8.20;99.90
11136;DHT22;5622;50.840;4.948;2023-02-11T12:44:58;8.20;99.90
11136;DHT22;5622;50.840;4.948;2023-02-11T12:47:47;8.30;99.90
11136;DHT22;5622;50.840;4.948;2023-02-11T12:50:41;8.20;99.90
11136;DHT22;5622;50.840;4.948;2023-02-11T12:54:04;8.20;99.90
11136;DHT22;5622;50.840;4.948;2023-02-11T12:56:51;8.30;99.90
11136;DHT22;5622;50.840;4.948;2023-02-11T12:59:43;8.30;99.90
11136;DHT22;5622;50.840;4.948;2023-02-11T13:02:31;8.30;99.90
11136;DHT22;5622;50.840;4.948;2023-02-11T13:05:22;8.30;99.90
11136;DHT22;5622;50.840;4.948;2023-02-11T13:08:16;8.40;99.90
11136;DHT22;5622;50.840;4.948;2023-02-11T13:10:59;8.40;99.90
11136;DHT22;5622;50.840;4.948;2023-02-11T13:13:56;8.40;99.90
11136;DHT22;5622;50.840;4.948;2023-02-11T13:16:43;8.40;99.90
11136;DHT22;5622;50.840;4.948;2023-02-11T13:19:19;8.40;99.90
11136;DHT22;5622;50.840;4.948;2023-02-11T13:22:14;8.40;99.90
11136;DHT22;5622;50.840;4.948;2023-02-11T13:25:13;8.40;99.90
11136;DHT22;5622;50.840;4.948;2023-02-11T13:28:11;8.50;99.90
11136;DHT22;5622;50.840;4.948;2023-02-11T13:31:09;8.50;99.90
11136;DHT22;5622;50.840;4.948;2023-02-11T13:33:51;8.50;99.90
11136;DHT22;5622;50.840;4.948;2023-02-11T13:36:41;8.50;99.90
11136;DHT22;5622;50.840;4.948;2023-02-11T13:39:23;8.50;99.90
11136;DHT22;5622;50.840;4.948;2023-02-11T13:42:02;8.60;99.90
11136;DHT22;5622;50.840;4.948;2023-02-11T13:44:35;8.60;99.90
11136;DHT22;5622;50.840;4.948;2023-02-11T13:47:10;8.50;99.90
11136;DHT22;5622;50.840;4.948;2023-02-11T13:49:53;8.50;99.90
11136;DHT22;5622;50.840;4.948;2023-02-11T13:52:29;8.60;99.90
11136;DHT22;5622;50.840;4.948;2023-02-11T13:55:14;8.50;99.90
11136;DHT22;5622;50.840;4.948;2023-02-11T14:01:10;8.50;99.90
11136;DHT22;5622;50.840;4.948;2023-02-11T14:04:18;8.50;99.90
11136;DHT22;5622;50.840;4.948;2023-02-11T14:07:30;8.50;99.90
11136;DHT22;5622;50.840;4.948;2023-02-11T14:10:51;8.50;99.90
11136;DHT22;5622;50.840;4.948;2023-02-11T14:13:30;8.50;99.90
11136;DHT22;5622;50.840;4.948;2023-02-11T14:16:17;8.50;99.90
11136;DHT22;5622;50.840;4.948;2023-02-11T14:19:03;8.50;99.90
11136;DHT22;5622;50.840;4.948;2023-02-11T14:21:47;8.50;99.90
11136;DHT22;5622;50.840;4.948;2023-02-11T14:24:42;8.50;99.90
11136;DHT22;5622;50.840;4.948;2023-02-11T14:27:26;8.60;99.90
11136;DHT22;5622;50.840;4.948;2023-02-11T14:30:25;8.60;99.90
11136;DHT22;5622;50.840;4.948;2023-02-11T14:36:06;8.60;99.90
11136;DHT22;5622;50.840;4.948;2023-02-11T14:38:48;8.50;99.90
11136;DHT22;5622;50.840;4.948;2023-02-11T14:41:23;8.50;99.90
11136;DHT22;5622;50.840;4.948;2023-02-11T14:43:58;8.60;99.90
11136;DHT22;5622;50.840;4.948;2023-02-11T14:46:34;8.50;99.90
11136;DHT22;5622;50.840;4.948;2023-02-11T14:49:17;8.50;99.90
11136;DHT22;5622;50.840;4.948;2023-02-11T14:52:03;8.50;99.90
11136;DHT22;5622;50.840;4.948;2023-02-11T14:54:36;8.50;99.90
11136;DHT22;5622;50.840;4.948;2023-02-11T14:57:14;8.50;99.90
11136;DHT22;5622;50.840;4.948;2023-02-11T15:00:00;8.50;99.90
11136;DHT22;5622;50.840;4.948;2023-02-11T15:02:36;8.50;99.90
11136;DHT22;5622;50.840;4.948;2023-02-11T15:05:23;8.50;99.90
11136;DHT22;5622;50.840;4.948;2023-02-11T15:07:55;8.50;99.90
11136;DHT22;5622;50.840;4.948;2023-02-11T15:10:32;8.50;99.90
11136;DHT22;5622;50.840;4.948;2023-02-11T15:13:08;8.50;99.90
11136;DHT22;5622;50.840;4.948;2023-02-11T15:16:05;8.50;99.90
11136;DHT22;5622;50.840;4.948;2023-02-11T15:18:44;8.50;99.90
11136;DHT22;5622;50.840;4.948;2023-02-11T15:21:33;8.50;99.90
11136;DHT22;5622;50.840;4.948;2023-02-11T15:24:22;8.50;99.90
11136;DHT22;5622;50.840;4.948;2023-02-11T15:26:59;8.50;99.90
11136;DHT22;5622;50.840;4.948;2023-02-11T15:29:39;8.50;99.90
11136;DHT22;5622;50.840;4.948;2023-02-11T15:32:18;8.50;99.90
11136;DHT22;5622;50.840;4.948;2023-02-11T15:34:54;8.50;99.90
11136;DHT22;5622;50.840;4.948;2023-02-11T15:37:30;8.50;99.90
11136;DHT22;5622;50.840;4.948;2023-02-11T15:40:10;8.50;99.90
11136;DHT22;5622;50.840;4.948;2023-02-11T15:42:54;8.50;99.90
11136;DHT22;5622;50.840;4.948;2023-02-11T15:45:34;8.40;99.90
11136;DHT22;5622;50.840;4.948;2023-02-11T15:48:13;8.40;99.90
11136;DHT22;5622;50.840;4.948;2023-02-11T15:50:53;8.50;99.90
11136;DHT22;5622;50.840;4.948;2023-02-11T15:54:01;8.50;99.90
11136;DHT22;5622;50.840;4.948;2023-02-11T15:56:41;8.40;99.90
11136;DHT22;5622;50.840;4.948;2023-02-11T15:59:28;8.50;99.90
11136;DHT22;5622;50.840;4.948;2023-02-11T16:02:13;8.40;99.90
11136;DHT22;5622;50.840;4.948;2023-02-11T16:04:55;8.40;99.90
11136;DHT22;5622;50.840;4.948;2023-02-11T16:07:43;8.40;99.90
11136;DHT22;5622;50.840;4.948;2023-02-11T16:10:31;8.40;99.90
11136;DHT22;5622;50.840;4.948;2023-02-11T16:13:22;8.40;99.90
11136;DHT22;5622;50.840;4.948;2023-02-11T16:16:20;8.40;99.90
11136;DHT22;5622;50.840;4.948;2023-02-11T16:19:05;8.40;99.90
11136;DHT22;5622;50.840;4.948;2023-02-11T16:21:46;8.40;99.90
11136;DHT22;5622;50.840;4.948;2023-02-11T16:24:25;8.40;99.90
11136;DHT22;5622;50.840;4.948;2023-02-11T16:27:07;8.40;99.90
11136;DHT22;5622;50.840;4.948;2023-02-11T16:29:54;8.40;99.90
11136;DHT22;5622;50.840;4.948;2023-02-11T16:32:32;8.40;99.90
11136;DHT22;5622;50.840;4.948;2023-02-11T16:35:19;8.40;99.90
11136;DHT22;5622;50.840;4.948;2023-02-11T16:38:04;8.40;99.90
11136;DHT22;5622;50.840;4.948;2023-02-11T16:40:41;8.30;99.90
11136;DHT22;5622;50.840;4.948;2023-02-11T16:43:25;8.30;99.90
11136;DHT22;5622;50.840;4.948;2023-02-11T16:46:09;8.30;99.90
11136;DHT22;5622;50.840;4.948;2023-02-11T16:48:45;8.30;99.90
11136;DHT22;5622;50.840;4.948;2023-02-11T16:51:26;8.30;99.90
11136;DHT22;5622;50.840;4.948;2023-02-11T16:54:23;8.30;99.90
11136;DHT22;5622;50.840;4.948;2023-02-11T16:57:00;8.30;99.90
11136;DHT22;5622;50.840;4.948;2023-02-11T16:59:56;8.30;99.90
11136;DHT22;5622;50.840;4.948;2023-02-11T17:02:40;8.30;99.90
11136;DHT22;5622;50.840;4.948;2023-02-11T17:05:20;8.30;99.90
11136;DHT22;5622;50.840;4.948;2023-02-11T17:08:02;8.30;99.90
11136;DHT22;5622;50.840;4.948;2023-02-11T17:10:39;8.30;99.90
11136;DHT22;5622;50.840;4.948;2023-02-11T17:13:26;8.30;99.90
11136;DHT22;5622;50.840;4.948;2023-02-11T17:16:20;8.20;99.90
11136;DHT22;5622;50.840;4.948;2023-02-11T17:19:09;8.30;99.90
11136;DHT22;5622;50.840;4.948;2023-02-11T17:21:53;8.30;99.90
11136;DHT22;5622;50.840;4.948;2023-02-11T17:24:32;8.30;99.90
11136;DHT22;5622;50.840;4.948;2023-02-11T17:27:16;8.30;99.90
11136;DHT22;5622;50.840;4.948;2023-02-11T17:30:02;8.20;99.90
11136;DHT22;5622;50.840;4.948;2023-02-11T17:33:00;8.20;99.90
11136;DHT22;5622;50.840;4.948;2023-02-11T17:35:44;8.30;99.90
11136;DHT22;5622;50.840;4.948;2023-02-11T17:38:25;8.20;99.90
11136;DHT22;5622;50.840;4.948;2023-02-11T17:41:03;8.20;99.90
11136;DHT22;5622;50.840;4.948;2023-02-11T17:43:46;8.20;99.90
11136;DHT22;5622;50.840;4.948;2023-02-11T17:46:22;8.20;99.90
11136;DHT22;5622;50.840;4.948;2023-02-11T17:48:59;8.20;99.90
11136;DHT22;5622;50.840;4.948;2023-02-11T17:51:40;8.20;99.90
11136;DHT22;5622;50.840;4.948;2023-02-11T17:54:17;8.20;99.90
11136;DHT22;5622;50.840;4.948;2023-02-11T17:56:49;8.20;99.90
11136;DHT22;5622;50.840;4.948;2023-02-11T17:59:23;8.20;99.90
11136;DHT22;5622;50.840;4.948;2023-02-11T18:02:00;8.20;99.90
11136;DHT22;5622;50.840;4.948;2023-02-11T18:04:32;8.20;99.90
11136;DHT22;5622;50.840;4.948;2023-02-11T18:07:03;8.20;99.90
11136;DHT22;5622;50.840;4.948;2023-02-11T18:38:04;8.70;99.90
11136;DHT22;5622;50.840;4.948;2023-02-11T18:40:33;8.30;99.90
11136;DHT22;5622;50.840;4.948;2023-02-11T18:43:03;8.30;99.90
11136;DHT22;5622;50.840;4.948;2023-02-11T18:45:33;8.20;99.90
11136;DHT22;5622;50.840;4.948;2023-02-11T18:48:00;8.30;99.90
11136;DHT22;5622;50.840;4.948;2023-02-11T18:50:29;8.20;99.90
11136;DHT22;5622;50.840;4.948;2023-02-11T18:52:58;8.20;99.90
11136;DHT22;5622;50.840;4.948;2023-02-11T18:55:25;8.20;99.90
11136;DHT22;5622;50.840;4.948;2023-02-11T18:57:52;8.20;99.90
11136;DHT22;5622;50.840;4.948;2023-02-11T19:00:20;8.10;99.90
11136;DHT22;5622;50.840;4.948;2023-02-11T19:02:47;8.10;99.90
11136;DHT22;5622;50.840;4.948;2023-02-11T19:05:15;8.10;99.90
11136;DHT22;5622;50.840;4.948;2023-02-11T19:07:42;8.10;99.90
11136;DHT22;5622;50.840;4.948;2023-02-11T19:10:16;8.10;99.90
11136;DHT22;5622;50.840;4.948;2023-02-11T19:12:57;8.00;99.90
11136;DHT22;5622;50.840;4.948;2023-02-11T19:15:25;8.00;99.90
11136;DHT22;5622;50.840;4.948;2023-02-11T19:17:55;8.00;99.90
11136;DHT22;5622;50.840;4.948;2023-02-11T19:20:23;8.20;99.90
11136;DHT22;5622;50.840;4.948;2023-02-11T19:22:53;8.00;99.90
11136;DHT22;5622;50.840;4.948;2023-02-11T19:25:21;8.00;99.90
11136;DHT22;5622;50.840;4.948;2023-02-11T19:27:50;8.00;99.90
11136;DHT22;5622;50.840;4.948;2023-02-11T19:30:23;8.10;99.90
11136;DHT22;5622;50.840;4.948;2023-02-11T19:32:51;8.00;99.90
11136;DHT22;5622;50.840;4.948;2023-02-11T19:35:21;8.00;99.90
11136;DHT22;5622;50.840;4.948;2023-02-11T19:37:51;8.00;99.90
11136;DHT22;5622;50.840;4.948;2023-02-11T19:40:24;8.00;99.90
11136;DHT22;5622;50.840;4.948;2023-02-11T19:42:57;7.70;99.90
11136;DHT22;5622;50.840;4.948;2023-02-11T19:45:36;8.00;99.90
11136;DHT22;5622;50.840;4.948;2023-02-11T19:48:04;7.90;99.90
11136;DHT22;5622;50.840;4.948;2023-02-11T19:50:31;8.00;99.90
11136;DHT22;5622;50.840;4.948;2023-02-11T19:52:59;8.00;99.90
11136;DHT22;5622;50.840;4.948;2023-02-11T19:55:28;8.00;99.90
11136;DHT22;5622;50.840;4.948;2023-02-11T19:57:56;8.00;99.90
11136;DHT22;5622;50.840;4.948;2023-02-11T20:00:23;8.00;99.90
11136;DHT22;5622;50.840;4.948;2023-02-11T20:02:52;8.00;99.90
11136;DHT22;5622;50.840;4.948;2023-02-11T20:05:27;8.00;99.90
11136;DHT22;5622;50.840;4.948;2023-02-11T20:07:57;8.00;99.90
11136;DHT22;5622;50.840;4.948;2023-02-11T20:10:28;8.00;99.90
11136;DHT22;5622;50.840;4.948;2023-02-11T20:12:55;8.00;99.90
11136;DHT22;5622;50.840;4.948;2023-02-11T20:15:25;7.90;99.90
11136;DHT22;5622;50.840;4.948;2023-02-11T20:17:57;8.00;99.90
11136;DHT22;5622;50.840;4.948;2023-02-11T20:20:31;8.00;99.90
11136;DHT22;5622;50.840;4.948;2023-02-11T20:22:59;7.90;99.90
11136;DHT22;5622;50.840;4.948;2023-02-11T20:25:38;7.90;99.90
11136;DHT22;5622;50.840;4.948;2023-02-11T20:28:05;7.90;99.90
11136;DHT22;5622;50.840;4.948;2023-02-11T20:30:33;7.90;99.90
11136;DHT22;5622;50.840;4.948;2023-02-11T20:33:07;7.90;99.90
11136;DHT22;5622;50.840;4.948;2023-02-11T20:35:55;7.90;99.90
11136;DHT22;5622;50.840;4.948;2023-02-11T20:38:25;7.90;99.90
11136;DHT22;5622;50.840;4.948;2023-02-11T20:41:01;7.90;99.90
11136;DHT22;5622;50.840;4.948;2023-02-11T20:43:45;7.90;99.90
11136;DHT22;5622;50.840;4.948;2023-02-11T20:46:28;7.80;99.90
11136;DHT22;5622;50.840;4.948;2023-02-11T20:48:58;7.60;99.90
11136;DHT22;5622;50.840;4.948;2023-02-11T20:51:27;7.90;99.90
11136;DHT22;5622;50.840;4.948;2023-02-11T20:53:54;7.90;99.90
11136;DHT22;5622;50.840;4.948;2023-02-11T20:56:25;7.90;99.90
11136;DHT22;5622;50.840;4.948;2023-02-11T20:58:55;7.80;99.90
11136;DHT22;5622;50.840;4.948;2023-02-11T21:01:23;7.90;99.90
11136;DHT22;5622;50.840;4.948;2023-02-11T21:03:52;7.80;99.90
11136;DHT22;5622;50.840;4.948;2023-02-11T21:06:21;7.90;99.90
11136;DHT22;5622;50.840;4.948;2023-02-11T21:08:49;7.80;99.90
11136;DHT22;5622;50.840;4.948;2023-02-11T21:11:16;7.90;99.90
11136;DHT22;5622;50.840;4.948;2023-02-11T21:13:45;7.80;99.90
11136;DHT22;5622;50.840;4.948;2023-02-11T21:16:14;7.90;99.90
11136;DHT22;5622;50.840;4.948;2023-02-11T21:18:42;7.90;99.90
11136;DHT22;5622;50.840;4.948;2023-02-11T21:21:09;7.80;99.90
11136;DHT22;5622;50.840;4.948;2023-02-11T21:23:37;7.90;99.90
11136;DHT22;5622;50.840;4.948;2023-02-11T21:26:05;7.80;99.90
11136;DHT22;5622;50.840;4.948;2023-02-11T21:28:32;7.80;99.90
11136;DHT22;5622;50.840;4.948;2023-02-11T21:31:02;7.80;99.90
11136;DHT22;5622;50.840;4.948;2023-02-11T21:33:29;7.80;99.90
11136;DHT22;5622;50.840;4.948;2023-02-11T21:35:59;7.80;99.90
11136;DHT22;5622;50.840;4.948;2023-02-11T21:38:28;7.80;99.90
11136;DHT22;5622;50.840;4.948;2023-02-11T21:41:01;7.80;99.90
11136;DHT22;5622;50.840;4.948;2023-02-11T21:43:29;7.80;99.90
11136;DHT22;5622;50.840;4.948;2023-02-11T21:45:56;7.80;99.90
11136;DHT22;5622;50.840;4.948;2023-02-11T21:48:25;7.80;99.90
11136;DHT22;5622;50.840;4.948;2023-02-11T21:50:52;7.70;99.90
11136;DHT22;5622;50.840;4.948;2023-02-11T21:53:20;7.70;99.90
11136;DHT22;5622;50.840;4.948;2023-02-11T21:55:47;7.70;99.90
11136;DHT22;5622;50.840;4.948;2023-02-11T21:58:15;7.70;99.90
11136;DHT22;5622;50.840;4.948;2023-02-11T22:00:43;7.70;99.90
11136;DHT22;5622;50.840;4.948;2023-02-11T22:03:11;7.70;99.90
11136;DHT22;5622;50.840;4.948;2023-02-11T22:05:40;7.70;99.90
11136;DHT22;5622;50.840;4.948;2023-02-11T22:08:07;7.70;99.90
11136;DHT22;5622;50.840;4.948;2023-02-11T22:10:34;7.70;99.90
11136;DHT22;5622;50.840;4.948;2023-02-11T22:13:01;7.70;99.90
11136;DHT22;5622;50.840;4.948;2023-02-11T22:15:29;7.70;99.90
11136;DHT22;5622;50.840;4.948;2023-02-11T22:17:56;7.70;99.90
11136;DHT22;5622;50.840;4.948;2023-02-11T22:20:23;7.70;99.90
11136;DHT22;5622;50.840;4.948;2023-02-11T22:22:51;7.70;99.90
11136;DHT22;5622;50.840;4.948;2023-02-11T22:25:19;7.70;99.90
11136;DHT22;5622;50.840;4.948;2023-02-11T22:27:46;7.70;99.90
11136;DHT22;5622;50.840;4.948;2023-02-11T22:30:13;7.70;99.90
11136;DHT22;5622;50.840;4.948;2023-02-11T22:32:40;7.60;99.90
11136;DHT22;5622;50.840;4.948;2023-02-11T22:35:08;7.60;99.90
11136;DHT22;5622;50.840;4.948;2023-02-11T22:37:35;7.60;99.90
11136;DHT22;5622;50.840;4.948;2023-02-11T22:40:04;7.60;99.90
11136;DHT22;5622;50.840;4.948;2023-02-11T22:42:32;7.60;99.90
11136;DHT22;5622;50.840;4.948;2023-02-11T22:44:59;7.60;99.90
11136;DHT22;5622;50.840;4.948;2023-02-11T22:47:26;7.70;99.90
11136;DHT22;5622;50.840;4.948;2023-02-11T22:49:53;7.70;99.90
11136;DHT22;5622;50.840;4.948;2023-02-11T22:52:20;7.70;99.90
11136;DHT22;5622;50.840;4.948;2023-02-11T22:54:49;7.70;99.90
11136;DHT22;5622;50.840;4.948;2023-02-11T22:57:18;7.70;99.90
11136;DHT22;5622;50.840;4.948;2023-02-11T22:59:45;7.60;99.90
11136;DHT22;5622;50.840;4.948;2023-02-11T23:02:13;7.60;99.90
11136;DHT22;5622;50.840;4.948;2023-02-11T23:04:40;7.60;99.90
11136;DHT22;5622;50.840;4.948;2023-02-11T23:07:08;7.60;99.90
11136;DHT22;5622;50.840;4.948;2023-02-11T23:09:35;7.60;99.90
11136;DHT22;5622;50.840;4.948;2023-02-11T23:12:02;7.60;99.90
11136;DHT22;5622;50.840;4.948;2023-02-11T23:14:31;7.60;99.90
11136;DHT22;5622;50.840;4.948;2023-02-11T23:16:58;7.60;99.90
11136;DHT22;5622;50.840;4.948;2023-02-11T23:19:25;7.60;99.90
11136;DHT22;5622;50.840;4.948;2023-02-11T23:21:52;7.60;99.90
11136;DHT22;5622;50.840;4.948;2023-02-11T23:24:19;7.60;99.90
11136;DHT22;5622;50.840;4.948;2023-02-11T23:26:47;7.60;99.90
11136;DHT22;5622;50.840;4.948;2023-02-11T23:29:14;7.60;99.90
11136;DHT22;5622;50.840;4.948;2023-02-11T23:31:43;7.70;99.90
11136;DHT22;5622;50.840;4.948;2023-02-11T23:34:12;7.60;99.90
11136;DHT22;5622;50.840;4.948;2023-02-11T23:36:42;7.60;99.90
11136;DHT22;5622;50.840;4.948;2023-02-11T23:39:12;7.60;99.90
11136;DHT22;5622;50.840;4.948;2023-02-11T23:41:40;7.70;99.90
11136;DHT22;5622;50.840;4.948;2023-02-11T23:44:08;7.60;99.90
11136;DHT22;5622;50.840;4.948;2023-02-11T23:46:35;7.60;99.90
11136;DHT22;5622;50.840;4.948;2023-02-11T23:49:04;7.60;99.90
11136;DHT22;5622;50.840;4.948;2023-02-11T23:51:31;7.60;99.90
11136;DHT22;5622;50.840;4.948;2023-02-11T23:53:58;7.60;99.90
11136;DHT22;5622;50.840;4.948;2023-02-11T23:56:27;7.60;99.90
11136;DHT22;5622;50.840;4.948;2023-02-11T23:58:56;7.50;99.90
